Wanderley, Brazil
Current Conditions -  °F | °C
As of 5:00 PM on Tuesday 25 Nov 2014 (Local Time) from SBQV Reporting Station
Few Clouds Few Clouds  
Wind Chill: 79°   Ceiling: Unl
Heat Index: 80°   Visibility: 6mi
Dew Point: 61°   Wind: 12mph
Humidity: 54%   Direction: 120°ESE
Pressure: 29.97"   Gusts: NA
Location:  12.12°S, 43.89°W
Report Text: SBQV 252000Z 12010KT 9999 FEW020 26/16 Q1015
Loading
Personal Weather Stations






























Interactive Weather Map New forecast layout! Learn more

10-Day Weather Forecast

Advertisements
Track Severe Weather on mobile